sensor_id;sensor_type;location;lat;lon;timestamp;P1;durP1;ratioP1;P2;durP2;ratioP2
72895;SDS011;61036;53.224;6.554;2023-12-04T00:00:00;34.00;;;19.10;;
72895;SDS011;61036;53.224;6.554;2023-12-04T00:02:26;36.53;;;18.50;;
72895;SDS011;61036;53.224;6.554;2023-12-04T00:04:51;35.37;;;19.57;;
72895;SDS011;61036;53.224;6.554;2023-12-04T00:07:17;35.17;;;19.73;;
72895;SDS011;61036;53.224;6.554;2023-12-04T00:09:42;36.33;;;19.10;;
72895;SDS011;61036;53.224;6.554;2023-12-04T00:12:08;29.77;;;17.70;;
72895;SDS011;61036;53.224;6.554;2023-12-04T00:14:33;31.73;;;17.93;;
72895;SDS011;61036;53.224;6.554;2023-12-04T00:16:59;39.10;;;20.17;;
72895;SDS011;61036;53.224;6.554;2023-12-04T00:19:24;35.83;;;19.73;;
72895;SDS011;61036;53.224;6.554;2023-12-04T00:21:50;33.20;;;19.00;;
72895;SDS011;61036;53.224;6.554;2023-12-04T00:24:16;38.33;;;20.60;;
72895;SDS011;61036;53.224;6.554;2023-12-04T00:26:42;38.00;;;20.50;;
72895;SDS011;61036;53.224;6.554;2023-12-04T00:29:07;34.00;;;19.97;;
72895;SDS011;61036;53.224;6.554;2023-12-04T00:31:33;32.50;;;18.80;;
72895;SDS011;61036;53.224;6.554;2023-12-04T00:33:58;35.43;;;21.00;;
72895;SDS011;61036;53.224;6.554;2023-12-04T00:36:23;34.10;;;20.17;;
72895;SDS011;61036;53.224;6.554;2023-12-04T00:38:49;40.53;;;22.77;;
72895;SDS011;61036;53.224;6.554;2023-12-04T00:41:14;33.07;;;19.70;;
72895;SDS011;61036;53.224;6.554;2023-12-04T00:43:40;35.93;;;21.53;;
72895;SDS011;61036;53.224;6.554;2023-12-04T00:46:05;35.37;;;20.87;;
72895;SDS011;61036;53.224;6.554;2023-12-04T00:48:31;32.90;;;20.37;;
72895;SDS011;61036;53.224;6.554;2023-12-04T00:50:57;39.70;;;21.23;;
72895;SDS011;61036;53.224;6.554;2023-12-04T00:53:22;39.13;;;22.17;;
72895;SDS011;61036;53.224;6.554;2023-12-04T00:55:48;38.83;;;21.37;;
72895;SDS011;61036;53.224;6.554;2023-12-04T00:58:13;36.03;;;21.43;;
72895;SDS011;61036;53.224;6.554;2023-12-04T01:00:39;39.13;;;20.70;;
72895;SDS011;61036;53.224;6.554;2023-12-04T01:03:05;38.50;;;22.17;;
72895;SDS011;61036;53.224;6.554;2023-12-04T01:05:30;37.00;;;21.27;;
72895;SDS011;61036;53.224;6.554;2023-12-04T01:07:56;38.53;;;20.67;;
72895;SDS011;61036;53.224;6.554;2023-12-04T01:10:21;39.60;;;21.10;;
72895;SDS011;61036;53.224;6.554;2023-12-04T01:12:47;35.23;;;20.00;;
72895;SDS011;61036;53.224;6.554;2023-12-04T01:15:12;35.63;;;20.47;;
72895;SDS011;61036;53.224;6.554;2023-12-04T01:17:38;33.80;;;20.03;;
72895;SDS011;61036;53.224;6.554;2023-12-04T01:20:03;35.37;;;21.20;;
72895;SDS011;61036;53.224;6.554;2023-12-04T01:22:30;31.30;;;18.30;;
72895;SDS011;61036;53.224;6.554;2023-12-04T01:24:55;36.17;;;19.17;;
72895;SDS011;61036;53.224;6.554;2023-12-04T01:27:21;33.40;;;19.70;;
72895;SDS011;61036;53.224;6.554;2023-12-04T01:29:46;36.47;;;18.73;;
72895;SDS011;61036;53.224;6.554;2023-12-04T01:32:12;36.30;;;19.57;;
72895;SDS011;61036;53.224;6.554;2023-12-04T01:34:37;36.73;;;20.33;;
72895;SDS011;61036;53.224;6.554;2023-12-04T01:37:02;33.73;;;20.37;;
72895;SDS011;61036;53.224;6.554;2023-12-04T01:39:28;37.53;;;20.73;;
72895;SDS011;61036;53.224;6.554;2023-12-04T01:41:54;30.60;;;17.70;;
72895;SDS011;61036;53.224;6.554;2023-12-04T01:44:19;33.00;;;19.70;;
72895;SDS011;61036;53.224;6.554;2023-12-04T01:46:46;32.70;;;18.60;;
72895;SDS011;61036;53.224;6.554;2023-12-04T01:49:12;32.17;;;19.20;;
72895;SDS011;61036;53.224;6.554;2023-12-04T01:51:38;33.43;;;19.30;;
72895;SDS011;61036;53.224;6.554;2023-12-04T01:54:05;34.73;;;18.27;;
72895;SDS011;61036;53.224;6.554;2023-12-04T01:56:32;34.23;;;19.70;;
72895;SDS011;61036;53.224;6.554;2023-12-04T01:58:59;35.40;;;19.87;;
72895;SDS011;61036;53.224;6.554;2023-12-04T02:01:25;34.17;;;18.43;;
72895;SDS011;61036;53.224;6.554;2023-12-04T02:03:52;32.17;;;18.23;;
72895;SDS011;61036;53.224;6.554;2023-12-04T02:06:19;35.50;;;19.90;;
72895;SDS011;61036;53.224;6.554;2023-12-04T02:08:46;31.90;;;18.50;;
72895;SDS011;61036;53.224;6.554;2023-12-04T02:11:12;35.80;;;20.23;;
72895;SDS011;61036;53.224;6.554;2023-12-04T02:13:37;31.90;;;18.73;;
72895;SDS011;61036;53.224;6.554;2023-12-04T02:16:03;32.80;;;18.23;;
72895;SDS011;61036;53.224;6.554;2023-12-04T02:18:34;33.40;;;19.37;;
72895;SDS011;61036;53.224;6.554;2023-12-04T02:21:01;32.17;;;18.23;;
72895;SDS011;61036;53.224;6.554;2023-12-04T02:23:27;33.73;;;18.43;;
72895;SDS011;61036;53.224;6.554;2023-12-04T02:25:54;35.67;;;19.77;;
72895;SDS011;61036;53.224;6.554;2023-12-04T02:28:23;31.67;;;18.97;;
72895;SDS011;61036;53.224;6.554;2023-12-04T02:30:52;32.13;;;18.10;;
72895;SDS011;61036;53.224;6.554;2023-12-04T02:33:18;31.47;;;19.93;;
72895;SDS011;61036;53.224;6.554;2023-12-04T02:35:48;31.70;;;18.70;;
72895;SDS011;61036;53.224;6.554;2023-12-04T02:38:16;29.37;;;16.30;;
72895;SDS011;61036;53.224;6.554;2023-12-04T02:40:43;32.10;;;18.30;;
72895;SDS011;61036;53.224;6.554;2023-12-04T02:43:09;30.57;;;17.57;;
72895;SDS011;61036;53.224;6.554;2023-12-04T02:45:34;32.13;;;18.53;;
72895;SDS011;61036;53.224;6.554;2023-12-04T02:47:59;35.37;;;18.67;;
72895;SDS011;61036;53.224;6.554;2023-12-04T02:50:25;31.60;;;16.97;;
72895;SDS011;61036;53.224;6.554;2023-12-04T02:52:50;29.07;;;16.40;;
72895;SDS011;61036;53.224;6.554;2023-12-04T02:55:16;28.23;;;16.23;;
72895;SDS011;61036;53.224;6.554;2023-12-04T02:57:41;33.07;;;17.30;;
72895;SDS011;61036;53.224;6.554;2023-12-04T03:00:07;30.53;;;17.63;;
72895;SDS011;61036;53.224;6.554;2023-12-04T03:02:33;33.53;;;17.93;;
72895;SDS011;61036;53.224;6.554;2023-12-04T03:04:59;29.50;;;16.63;;
72895;SDS011;61036;53.224;6.554;2023-12-04T03:07:24;29.83;;;17.30;;
72895;SDS011;61036;53.224;6.554;2023-12-04T03:09:51;28.50;;;17.30;;
72895;SDS011;61036;53.224;6.554;2023-12-04T03:12:17;28.30;;;17.50;;
72895;SDS011;61036;53.224;6.554;2023-12-04T03:14:42;25.53;;;15.70;;
72895;SDS011;61036;53.224;6.554;2023-12-04T03:17:08;26.27;;;15.23;;
72895;SDS011;61036;53.224;6.554;2023-12-04T03:19:33;31.57;;;18.17;;
72895;SDS011;61036;53.224;6.554;2023-12-04T03:21:59;30.63;;;17.07;;
72895;SDS011;61036;53.224;6.554;2023-12-04T03:24:25;31.27;;;17.63;;
72895;SDS011;61036;53.224;6.554;2023-12-04T03:26:50;33.23;;;18.43;;
72895;SDS011;61036;53.224;6.554;2023-12-04T03:29:16;29.20;;;17.10;;
72895;SDS011;61036;53.224;6.554;2023-12-04T03:31:41;33.03;;;17.77;;
72895;SDS011;61036;53.224;6.554;2023-12-04T03:34:07;28.20;;;16.63;;
72895;SDS011;61036;53.224;6.554;2023-12-04T03:36:32;31.90;;;16.87;;
72895;SDS011;61036;53.224;6.554;2023-12-04T03:38:58;29.60;;;17.83;;
72895;SDS011;61036;53.224;6.554;2023-12-04T03:41:23;30.27;;;17.40;;
72895;SDS011;61036;53.224;6.554;2023-12-04T03:43:49;31.87;;;16.97;;
72895;SDS011;61036;53.224;6.554;2023-12-04T03:46:14;30.03;;;16.87;;
72895;SDS011;61036;53.224;6.554;2023-12-04T03:48:40;27.53;;;15.90;;
72895;SDS011;61036;53.224;6.554;2023-12-04T03:51:05;30.00;;;17.30;;
72895;SDS011;61036;53.224;6.554;2023-12-04T03:53:31;29.97;;;16.50;;
72895;SDS011;61036;53.224;6.554;2023-12-04T03:55:58;29.63;;;16.97;;
72895;SDS011;61036;53.224;6.554;2023-12-04T03:58:24;30.70;;;17.00;;
72895;SDS011;61036;53.224;6.554;2023-12-04T04:00:50;30.00;;;17.07;;
72895;SDS011;61036;53.224;6.554;2023-12-04T04:03:15;29.27;;;17.27;;
72895;SDS011;61036;53.224;6.554;2023-12-04T04:05:41;37.47;;;22.37;;
72895;SDS011;61036;53.224;6.554;2023-12-04T04:08:06;29.43;;;15.37;;
72895;SDS011;61036;53.224;6.554;2023-12-04T04:10:33;30.37;;;16.73;;
72895;SDS011;61036;53.224;6.554;2023-12-04T04:12:59;29.10;;;16.50;;
72895;SDS011;61036;53.224;6.554;2023-12-04T04:15:25;31.03;;;17.33;;
72895;SDS011;61036;53.224;6.554;2023-12-04T04:17:51;33.37;;;18.27;;
72895;SDS011;61036;53.224;6.554;2023-12-04T04:20:16;29.00;;;17.63;;
72895;SDS011;61036;53.224;6.554;2023-12-04T04:22:42;28.47;;;16.67;;
72895;SDS011;61036;53.224;6.554;2023-12-04T04:25:08;28.40;;;15.73;;
72895;SDS011;61036;53.224;6.554;2023-12-04T04:27:34;29.30;;;15.80;;
72895;SDS011;61036;53.224;6.554;2023-12-04T04:30:03;30.87;;;17.07;;
72895;SDS011;61036;53.224;6.554;2023-12-04T04:32:29;33.13;;;17.83;;
72895;SDS011;61036;53.224;6.554;2023-12-04T04:34:55;32.63;;;17.47;;
72895;SDS011;61036;53.224;6.554;2023-12-04T04:37:20;28.70;;;17.00;;
72895;SDS011;61036;53.224;6.554;2023-12-04T04:39:45;27.67;;;16.00;;
72895;SDS011;61036;53.224;6.554;2023-12-04T04:42:11;29.30;;;16.23;;
72895;SDS011;61036;53.224;6.554;2023-12-04T04:44:37;31.67;;;16.87;;
72895;SDS011;61036;53.224;6.554;2023-12-04T04:47:02;32.13;;;17.23;;
72895;SDS011;61036;53.224;6.554;2023-12-04T04:49:28;27.83;;;16.43;;
72895;SDS011;61036;53.224;6.554;2023-12-04T04:51:53;32.17;;;18.00;;
72895;SDS011;61036;53.224;6.554;2023-12-04T04:54:19;32.00;;;16.27;;
72895;SDS011;61036;53.224;6.554;2023-12-04T04:56:44;30.37;;;18.33;;
72895;SDS011;61036;53.224;6.554;2023-12-04T04:59:10;31.37;;;17.33;;
72895;SDS011;61036;53.224;6.554;2023-12-04T05:01:35;29.33;;;16.90;;
72895;SDS011;61036;53.224;6.554;2023-12-04T05:04:01;28.93;;;16.13;;
72895;SDS011;61036;53.224;6.554;2023-12-04T05:06:27;33.40;;;17.67;;
72895;SDS011;61036;53.224;6.554;2023-12-04T05:08:53;33.77;;;18.23;;
72895;SDS011;61036;53.224;6.554;2023-12-04T05:11:18;26.73;;;16.43;;
72895;SDS011;61036;53.224;6.554;2023-12-04T05:13:44;28.93;;;17.50;;
72895;SDS011;61036;53.224;6.554;2023-12-04T05:16:10;30.33;;;17.10;;
72895;SDS011;61036;53.224;6.554;2023-12-04T05:18:36;29.07;;;16.77;;
72895;SDS011;61036;53.224;6.554;2023-12-04T05:21:01;28.97;;;15.60;;
72895;SDS011;61036;53.224;6.554;2023-12-04T05:23:27;29.43;;;17.07;;
72895;SDS011;61036;53.224;6.554;2023-12-04T05:25:53;30.83;;;17.47;;
72895;SDS011;61036;53.224;6.554;2023-12-04T05:28:18;29.27;;;17.93;;
72895;SDS011;61036;53.224;6.554;2023-12-04T05:30:44;31.03;;;17.53;;
72895;SDS011;61036;53.224;6.554;2023-12-04T05:33:09;32.57;;;17.90;;
72895;SDS011;61036;53.224;6.554;2023-12-04T05:35:35;30.03;;;17.97;;
72895;SDS011;61036;53.224;6.554;2023-12-04T05:38:02;30.70;;;17.00;;
72895;SDS011;61036;53.224;6.554;2023-12-04T05:40:27;29.70;;;16.97;;
72895;SDS011;61036;53.224;6.554;2023-12-04T05:42:53;31.70;;;16.70;;
72895;SDS011;61036;53.224;6.554;2023-12-04T05:45:18;31.10;;;17.27;;
72895;SDS011;61036;53.224;6.554;2023-12-04T05:47:44;29.50;;;17.07;;
72895;SDS011;61036;53.224;6.554;2023-12-04T05:50:09;28.73;;;16.67;;
72895;SDS011;61036;53.224;6.554;2023-12-04T05:52:35;26.67;;;16.80;;
72895;SDS011;61036;53.224;6.554;2023-12-04T05:55:00;32.43;;;18.23;;
72895;SDS011;61036;53.224;6.554;2023-12-04T05:57:26;27.03;;;15.53;;
72895;SDS011;61036;53.224;6.554;2023-12-04T05:59:51;27.20;;;15.27;;
72895;SDS011;61036;53.224;6.554;2023-12-04T06:02:17;26.23;;;15.67;;
72895;SDS011;61036;53.224;6.554;2023-12-04T06:04:42;28.67;;;15.93;;
72895;SDS011;61036;53.224;6.554;2023-12-04T06:07:08;27.83;;;16.50;;
72895;SDS011;61036;53.224;6.554;2023-12-04T06:09:34;27.00;;;15.47;;
72895;SDS011;61036;53.224;6.554;2023-12-04T06:12:02;32.93;;;16.70;;
72895;SDS011;61036;53.224;6.554;2023-12-04T06:14:33;26.77;;;15.53;;
72895;SDS011;61036;53.224;6.554;2023-12-04T06:16:59;28.83;;;16.23;;
72895;SDS011;61036;53.224;6.554;2023-12-04T06:19:24;25.10;;;13.37;;
72895;SDS011;61036;53.224;6.554;2023-12-04T06:21:50;26.87;;;16.03;;
72895;SDS011;61036;53.224;6.554;2023-12-04T06:24:15;27.60;;;14.50;;
72895;SDS011;61036;53.224;6.554;2023-12-04T06:26:41;25.63;;;14.53;;
72895;SDS011;61036;53.224;6.554;2023-12-04T06:29:08;28.83;;;16.63;;
72895;SDS011;61036;53.224;6.554;2023-12-04T06:31:34;27.03;;;15.40;;
72895;SDS011;61036;53.224;6.554;2023-12-04T06:34:00;28.60;;;15.20;;
72895;SDS011;61036;53.224;6.554;2023-12-04T06:36:25;26.60;;;13.93;;
72895;SDS011;61036;53.224;6.554;2023-12-04T06:38:56;76.87;;;34.60;;
72895;SDS011;61036;53.224;6.554;2023-12-04T06:41:24;26.47;;;14.87;;
72895;SDS011;61036;53.224;6.554;2023-12-04T06:43:50;24.73;;;14.27;;
72895;SDS011;61036;53.224;6.554;2023-12-04T06:46:16;25.87;;;15.77;;
72895;SDS011;61036;53.224;6.554;2023-12-04T06:48:42;25.53;;;14.73;;
72895;SDS011;61036;53.224;6.554;2023-12-04T06:51:08;23.20;;;14.07;;
72895;SDS011;61036;53.224;6.554;2023-12-04T06:53:34;25.60;;;14.13;;
72895;SDS011;61036;53.224;6.554;2023-12-04T06:55:59;25.07;;;14.37;;
72895;SDS011;61036;53.224;6.554;2023-12-04T06:58:24;26.10;;;14.40;;
72895;SDS011;61036;53.224;6.554;2023-12-04T07:00:50;23.27;;;13.67;;
72895;SDS011;61036;53.224;6.554;2023-12-04T07:03:16;24.93;;;15.17;;
72895;SDS011;61036;53.224;6.554;2023-12-04T07:05:41;26.03;;;15.10;;
72895;SDS011;61036;53.224;6.554;2023-12-04T07:08:07;28.50;;;15.50;;
72895;SDS011;61036;53.224;6.554;2023-12-04T07:10:32;23.50;;;14.40;;
72895;SDS011;61036;53.224;6.554;2023-12-04T07:12:58;25.90;;;14.43;;
72895;SDS011;61036;53.224;6.554;2023-12-04T07:15:23;28.80;;;14.70;;
72895;SDS011;61036;53.224;6.554;2023-12-04T07:17:49;26.13;;;14.20;;
72895;SDS011;61036;53.224;6.554;2023-12-04T07:20:14;24.27;;;14.53;;
72895;SDS011;61036;53.224;6.554;2023-12-04T07:22:40;23.77;;;14.60;;
72895;SDS011;61036;53.224;6.554;2023-12-04T07:25:06;24.33;;;13.57;;
72895;SDS011;61036;53.224;6.554;2023-12-04T07:27:32;25.23;;;13.77;;
72895;SDS011;61036;53.224;6.554;2023-12-04T07:29:58;25.90;;;14.70;;
72895;SDS011;61036;53.224;6.554;2023-12-04T07:32:25;25.57;;;14.60;;
72895;SDS011;61036;53.224;6.554;2023-12-04T07:34:50;25.60;;;13.27;;
72895;SDS011;61036;53.224;6.554;2023-12-04T07:37:16;21.73;;;13.90;;
72895;SDS011;61036;53.224;6.554;2023-12-04T07:39:43;24.40;;;13.93;;
72895;SDS011;61036;53.224;6.554;2023-12-04T07:42:11;23.77;;;12.83;;
72895;SDS011;61036;53.224;6.554;2023-12-04T07:44:37;23.10;;;13.13;;
72895;SDS011;61036;53.224;6.554;2023-12-04T07:47:02;26.87;;;13.50;;
72895;SDS011;61036;53.224;6.554;2023-12-04T07:49:28;22.90;;;13.10;;
72895;SDS011;61036;53.224;6.554;2023-12-04T07:51:54;25.80;;;13.60;;
72895;SDS011;61036;53.224;6.554;2023-12-04T07:54:20;25.00;;;13.20;;
72895;SDS011;61036;53.224;6.554;2023-12-04T07:56:47;24.73;;;14.03;;
72895;SDS011;61036;53.224;6.554;2023-12-04T07:59:13;24.13;;;13.33;;
72895;SDS011;61036;53.224;6.554;2023-12-04T08:01:38;21.60;;;12.63;;
72895;SDS011;61036;53.224;6.554;2023-12-04T08:04:04;20.90;;;13.33;;
72895;SDS011;61036;53.224;6.554;2023-12-04T08:06:30;22.50;;;13.30;;
72895;SDS011;61036;53.224;6.554;2023-12-04T08:08:56;21.13;;;13.17;;
72895;SDS011;61036;53.224;6.554;2023-12-04T08:11:22;20.53;;;12.27;;
72895;SDS011;61036;53.224;6.554;2023-12-04T08:13:47;23.27;;;13.73;;
72895;SDS011;61036;53.224;6.554;2023-12-04T08:16:13;19.60;;;11.27;;
72895;SDS011;61036;53.224;6.554;2023-12-04T08:18:45;23.30;;;12.80;;
72895;SDS011;61036;53.224;6.554;2023-12-04T08:21:10;21.87;;;13.03;;
72895;SDS011;61036;53.224;6.554;2023-12-04T08:23:37;21.30;;;11.90;;
72895;SDS011;61036;53.224;6.554;2023-12-04T08:26:02;20.43;;;12.00;;
72895;SDS011;61036;53.224;6.554;2023-12-04T08:28:29;18.47;;;11.80;;
72895;SDS011;61036;53.224;6.554;2023-12-04T08:30:54;22.47;;;11.90;;
72895;SDS011;61036;53.224;6.554;2023-12-04T08:33:20;19.87;;;11.90;;
72895;SDS011;61036;53.224;6.554;2023-12-04T08:35:45;19.27;;;11.93;;
72895;SDS011;61036;53.224;6.554;2023-12-04T08:38:11;17.80;;;10.80;;
72895;SDS011;61036;53.224;6.554;2023-12-04T08:40:36;20.10;;;11.83;;
72895;SDS011;61036;53.224;6.554;2023-12-04T08:43:02;20.57;;;11.80;;
72895;SDS011;61036;53.224;6.554;2023-12-04T08:45:29;18.20;;;10.93;;
72895;SDS011;61036;53.224;6.554;2023-12-04T08:47:54;19.37;;;11.37;;
72895;SDS011;61036;53.224;6.554;2023-12-04T08:50:20;19.53;;;10.77;;
72895;SDS011;61036;53.224;6.554;2023-12-04T08:52:46;21.63;;;11.67;;
72895;SDS011;61036;53.224;6.554;2023-12-04T08:55:11;17.47;;;10.40;;
72895;SDS011;61036;53.224;6.554;2023-12-04T08:57:37;17.70;;;10.27;;
72895;SDS011;61036;53.224;6.554;2023-12-04T09:00:03;17.03;;;10.30;;
72895;SDS011;61036;53.224;6.554;2023-12-04T09:02:29;17.47;;;10.37;;
72895;SDS011;61036;53.224;6.554;2023-12-04T09:04:55;19.53;;;11.20;;
72895;SDS011;61036;53.224;6.554;2023-12-04T09:07:21;18.80;;;10.90;;
72895;SDS011;61036;53.224;6.554;2023-12-04T09:09:46;17.93;;;10.07;;
72895;SDS011;61036;53.224;6.554;2023-12-04T09:12:12;18.00;;;10.87;;
72895;SDS011;61036;53.224;6.554;2023-12-04T09:14:37;16.97;;;9.83;;
72895;SDS011;61036;53.224;6.554;2023-12-04T09:17:03;19.33;;;10.37;;
72895;SDS011;61036;53.224;6.554;2023-12-04T09:19:28;15.77;;;9.57;;
72895;SDS011;61036;53.224;6.554;2023-12-04T09:21:54;19.00;;;10.33;;
72895;SDS011;61036;53.224;6.554;2023-12-04T09:24:20;16.13;;;9.77;;
72895;SDS011;61036;53.224;6.554;2023-12-04T09:26:45;16.57;;;9.63;;
72895;SDS011;61036;53.224;6.554;2023-12-04T09:29:11;15.33;;;9.20;;
72895;SDS011;61036;53.224;6.554;2023-12-04T09:31:37;15.13;;;9.37;;
72895;SDS011;61036;53.224;6.554;2023-12-04T09:34:03;15.37;;;8.90;;
72895;SDS011;61036;53.224;6.554;2023-12-04T09:36:28;14.07;;;8.27;;
72895;SDS011;61036;53.224;6.554;2023-12-04T09:38:54;16.43;;;9.57;;
72895;SDS011;61036;53.224;6.554;2023-12-04T09:41:20;15.13;;;8.90;;
72895;SDS011;61036;53.224;6.554;2023-12-04T09:43:46;15.20;;;9.27;;
72895;SDS011;61036;53.224;6.554;2023-12-04T09:46:13;15.93;;;9.43;;
72895;SDS011;61036;53.224;6.554;2023-12-04T09:48:40;16.83;;;9.53;;
72895;SDS011;61036;53.224;6.554;2023-12-04T09:51:08;13.33;;;7.97;;
72895;SDS011;61036;53.224;6.554;2023-12-04T09:53:34;17.03;;;9.33;;
72895;SDS011;61036;53.224;6.554;2023-12-04T09:56:00;15.80;;;8.97;;
72895;SDS011;61036;53.224;6.554;2023-12-04T09:58:28;16.50;;;8.97;;
72895;SDS011;61036;53.224;6.554;2023-12-04T10:00:56;13.90;;;8.80;;
72895;SDS011;61036;53.224;6.554;2023-12-04T10:03:22;15.10;;;9.23;;
72895;SDS011;61036;53.224;6.554;2023-12-04T10:05:47;16.00;;;9.43;;
72895;SDS011;61036;53.224;6.554;2023-12-04T10:08:14;16.27;;;9.70;;
72895;SDS011;61036;53.224;6.554;2023-12-04T10:10:39;14.83;;;9.17;;
72895;SDS011;61036;53.224;6.554;2023-12-04T10:13:05;15.53;;;8.80;;
72895;SDS011;61036;53.224;6.554;2023-12-04T10:15:31;14.53;;;8.73;;
72895;SDS011;61036;53.224;6.554;2023-12-04T10:17:57;17.00;;;9.53;;
72895;SDS011;61036;53.224;6.554;2023-12-04T10:20:23;14.67;;;8.83;;
72895;SDS011;61036;53.224;6.554;2023-12-04T10:22:59;15.20;;;8.97;;
72895;SDS011;61036;53.224;6.554;2023-12-04T10:25:27;15.63;;;8.70;;
72895;SDS011;61036;53.224;6.554;2023-12-04T10:27:55;15.03;;;8.67;;
72895;SDS011;61036;53.224;6.554;2023-12-04T10:30:33;16.10;;;9.97;;
72895;SDS011;61036;53.224;6.554;2023-12-04T10:33:02;16.63;;;9.20;;
72895;SDS011;61036;53.224;6.554;2023-12-04T10:35:30;15.47;;;9.40;;
72895;SDS011;61036;53.224;6.554;2023-12-04T10:38:02;15.83;;;8.53;;
72895;SDS011;61036;53.224;6.554;2023-12-04T10:40:30;15.27;;;8.87;;
72895;SDS011;61036;53.224;6.554;2023-12-04T10:43:39;15.63;;;8.93;;
72895;SDS011;61036;53.224;6.554;2023-12-04T10:45:50;15.07;;;8.40;;
72895;SDS011;61036;53.224;6.554;2023-12-04T10:48:17;15.67;;;8.93;;
72895;SDS011;61036;53.224;6.554;2023-12-04T10:50:44;16.50;;;8.83;;
72895;SDS011;61036;53.224;6.554;2023-12-04T10:53:12;12.80;;;7.60;;
72895;SDS011;61036;53.224;6.554;2023-12-04T10:55:39;13.57;;;8.10;;
72895;SDS011;61036;53.224;6.554;2023-12-04T10:58:06;14.30;;;8.47;;
72895;SDS011;61036;53.224;6.554;2023-12-04T11:00:34;16.33;;;8.33;;
72895;SDS011;61036;53.224;6.554;2023-12-04T11:03:05;12.90;;;7.97;;
72895;SDS011;61036;53.224;6.554;2023-12-04T11:05:35;11.00;;;6.53;;
72895;SDS011;61036;53.224;6.554;2023-12-04T11:08:03;14.50;;;8.13;;
72895;SDS011;61036;53.224;6.554;2023-12-04T11:10:31;14.47;;;7.93;;
72895;SDS011;61036;53.224;6.554;2023-12-04T11:13:06;12.57;;;7.20;;
72895;SDS011;61036;53.224;6.554;2023-12-04T11:15:39;14.10;;;7.70;;
72895;SDS011;61036;53.224;6.554;2023-12-04T11:18:09;13.27;;;8.27;;
72895;SDS011;61036;53.224;6.554;2023-12-04T11:20:44;15.93;;;8.53;;
72895;SDS011;61036;53.224;6.554;2023-12-04T11:23:16;15.57;;;7.53;;
72895;SDS011;61036;53.224;6.554;2023-12-04T11:25:41;12.67;;;7.60;;
72895;SDS011;61036;53.224;6.554;2023-12-04T11:28:09;11.87;;;7.20;;
72895;SDS011;61036;53.224;6.554;2023-12-04T11:30:36;13.50;;;8.60;;
72895;SDS011;61036;53.224;6.554;2023-12-04T11:33:04;13.20;;;7.60;;
72895;SDS011;61036;53.224;6.554;2023-12-04T11:35:30;15.43;;;7.73;;
72895;SDS011;61036;53.224;6.554;2023-12-04T11:37:55;13.63;;;7.30;;
72895;SDS011;61036;53.224;6.554;2023-12-04T11:40:22;11.70;;;7.47;;
72895;SDS011;61036;53.224;6.554;2023-12-04T11:42:48;12.50;;;8.03;;
72895;SDS011;61036;53.224;6.554;2023-12-04T11:45:19;15.13;;;7.73;;
72895;SDS011;61036;53.224;6.554;2023-12-04T11:50:19;12.60;;;7.40;;
72895;SDS011;61036;53.224;6.554;2023-12-04T11:52:45;12.97;;;7.43;;
72895;SDS011;61036;53.224;6.554;2023-12-04T11:55:12;11.57;;;6.87;;
72895;SDS011;61036;53.224;6.554;2023-12-04T11:57:40;12.27;;;7.20;;
72895;SDS011;61036;53.224;6.554;2023-12-04T12:05:22;11.50;;;7.10;;
72895;SDS011;61036;53.224;6.554;2023-12-04T12:07:48;14.33;;;7.33;;
72895;SDS011;61036;53.224;6.554;2023-12-04T12:10:18;12.80;;;7.67;;
72895;SDS011;61036;53.224;6.554;2023-12-04T12:12:44;13.10;;;7.87;;
72895;SDS011;61036;53.224;6.554;2023-12-04T12:15:10;11.43;;;7.27;;
72895;SDS011;61036;53.224;6.554;2023-12-04T12:17:39;12.43;;;7.17;;
72895;SDS011;61036;53.224;6.554;2023-12-04T12:20:06;15.23;;;7.93;;
72895;SDS011;61036;53.224;6.554;2023-12-04T12:22:33;13.30;;;7.57;;
72895;SDS011;61036;53.224;6.554;2023-12-04T12:24:59;12.20;;;7.07;;
72895;SDS011;61036;53.224;6.554;2023-12-04T12:27:25;12.00;;;7.10;;
72895;SDS011;61036;53.224;6.554;2023-12-04T12:29:51;12.43;;;7.67;;
72895;SDS011;61036;53.224;6.554;2023-12-04T12:32:16;12.10;;;6.97;;
72895;SDS011;61036;53.224;6.554;2023-12-04T12:34:42;14.40;;;7.73;;
72895;SDS011;61036;53.224;6.554;2023-12-04T12:37:08;12.53;;;7.70;;
72895;SDS011;61036;53.224;6.554;2023-12-04T12:39:34;13.43;;;7.63;;
72895;SDS011;61036;53.224;6.554;2023-12-04T12:42:00;13.80;;;7.50;;
72895;SDS011;61036;53.224;6.554;2023-12-04T12:44:26;14.17;;;7.60;;
72895;SDS011;61036;53.224;6.554;2023-12-04T12:46:52;12.00;;;7.07;;
72895;SDS011;61036;53.224;6.554;2023-12-04T12:49:18;12.27;;;6.80;;
72895;SDS011;61036;53.224;6.554;2023-12-04T12:51:47;12.87;;;7.67;;
72895;SDS011;61036;53.224;6.554;2023-12-04T12:54:12;13.63;;;8.33;;
72895;SDS011;61036;53.224;6.554;2023-12-04T12:56:38;14.50;;;7.63;;
72895;SDS011;61036;53.224;6.554;2023-12-04T12:59:04;14.20;;;8.40;;
72895;SDS011;61036;53.224;6.554;2023-12-04T13:01:31;12.80;;;7.83;;
72895;SDS011;61036;53.224;6.554;2023-12-04T13:03:57;12.43;;;7.10;;
72895;SDS011;61036;53.224;6.554;2023-12-04T13:06:22;13.23;;;8.07;;
72895;SDS011;61036;53.224;6.554;2023-12-04T13:08:48;12.13;;;8.23;;
72895;SDS011;61036;53.224;6.554;2023-12-04T13:11:14;12.77;;;8.20;;
72895;SDS011;61036;53.224;6.554;2023-12-04T13:13:39;12.73;;;8.13;;
72895;SDS011;61036;53.224;6.554;2023-12-04T13:16:05;15.07;;;7.60;;
72895;SDS011;61036;53.224;6.554;2023-12-04T13:18:31;13.27;;;7.73;;
72895;SDS011;61036;53.224;6.554;2023-12-04T13:21:00;12.53;;;7.90;;
72895;SDS011;61036;53.224;6.554;2023-12-04T13:23:26;13.03;;;8.17;;
72895;SDS011;61036;53.224;6.554;2023-12-04T13:25:52;12.03;;;7.80;;
72895;SDS011;61036;53.224;6.554;2023-12-04T13:28:19;12.10;;;7.43;;
72895;SDS011;61036;53.224;6.554;2023-12-04T13:30:45;12.50;;;8.40;;
72895;SDS011;61036;53.224;6.554;2023-12-04T13:33:11;13.43;;;8.43;;
72895;SDS011;61036;53.224;6.554;2023-12-04T13:35:36;13.03;;;7.97;;
72895;SDS011;61036;53.224;6.554;2023-12-04T13:38:02;12.77;;;7.70;;
72895;SDS011;61036;53.224;6.554;2023-12-04T13:40:27;12.97;;;7.80;;
72895;SDS011;61036;53.224;6.554;2023-12-04T13:42:57;13.07;;;7.90;;
72895;SDS011;61036;53.224;6.554;2023-12-04T13:45:41;12.23;;;7.60;;
72895;SDS011;61036;53.224;6.554;2023-12-04T13:48:07;11.97;;;7.70;;
72895;SDS011;61036;53.224;6.554;2023-12-04T13:50:33;11.73;;;7.00;;
72895;SDS011;61036;53.224;6.554;2023-12-04T13:52:58;12.53;;;7.73;;
72895;SDS011;61036;53.224;6.554;2023-12-04T13:55:25;12.90;;;7.80;;
72895;SDS011;61036;53.224;6.554;2023-12-04T13:58:12;13.00;;;7.80;;
72895;SDS011;61036;53.224;6.554;2023-12-04T14:00:57;12.97;;;7.37;;
72895;SDS011;61036;53.224;6.554;2023-12-04T14:03:24;12.60;;;7.93;;
72895;SDS011;61036;53.224;6.554;2023-12-04T14:05:50;11.90;;;7.57;;
72895;SDS011;61036;53.224;6.554;2023-12-04T14:08:15;14.40;;;8.53;;
72895;SDS011;61036;53.224;6.554;2023-12-04T14:10:41;13.83;;;8.67;;
72895;SDS011;61036;53.224;6.554;2023-12-04T14:13:06;12.33;;;7.67;;
72895;SDS011;61036;53.224;6.554;2023-12-04T14:15:33;12.73;;;7.23;;
72895;SDS011;61036;53.224;6.554;2023-12-04T14:17:58;12.93;;;7.73;;
72895;SDS011;61036;53.224;6.554;2023-12-04T14:20:24;14.67;;;7.80;;
72895;SDS011;61036;53.224;6.554;2023-12-04T14:22:51;14.97;;;8.73;;
72895;SDS011;61036;53.224;6.554;2023-12-04T14:25:16;13.73;;;7.80;;
72895;SDS011;61036;53.224;6.554;2023-12-04T14:27:42;12.10;;;7.73;;